createdAt,value
2023-05-21T00:01:17.482Z,22.27
2023-05-21T00:03:44.645Z,16.25
2023-05-21T00:06:12.065Z,14.88
2023-05-21T00:08:38.982Z,15.48
2023-05-21T00:11:06.049Z,15.50
2023-05-21T00:13:34.310Z,18.35
2023-05-21T00:16:01.227Z,13.90
2023-05-21T00:18:28.144Z,15.45
2023-05-21T00:20:55.067Z,20.05
2023-05-21T00:23:22.013Z,15.88
2023-05-21T00:25:48.951Z,21.83
2023-05-21T00:28:15.938Z,22.60
2023-05-21T00:30:44.796Z,18.30
2023-05-21T00:33:11.695Z,18.00
2023-05-21T00:35:38.608Z,18.73
2023-05-21T00:38:05.552Z,18.10
2023-05-21T00:40:32.570Z,16.52
2023-05-21T00:42:59.462Z,18.27
2023-05-21T00:45:26.380Z,21.70
2023-05-21T00:47:54.735Z,13.90
2023-05-21T00:50:21.765Z,20.13
2023-05-21T00:52:48.674Z,20.80
2023-05-21T00:55:15.555Z,18.13
2023-05-21T00:57:42.495Z,17.02
2023-05-21T01:00:10.987Z,22.98
2023-05-21T01:02:38.207Z,15.90
2023-05-21T01:05:07.304Z,19.23
2023-05-21T01:07:34.350Z,21.73
2023-05-21T01:10:02.055Z,16.95
2023-05-21T01:12:29.039Z,19.95
2023-05-21T01:14:55.944Z,17.20
2023-05-21T01:17:22.899Z,17.83
2023-05-21T01:19:49.868Z,13.35
2023-05-21T01:22:18.217Z,17.00
2023-05-21T01:24:46.850Z,16.30
2023-05-21T01:27:13.807Z,14.05
2023-05-21T01:29:40.705Z,12.82
2023-05-21T01:32:10.791Z,17.25
2023-05-21T01:34:40.637Z,16.33
2023-05-21T01:37:13.092Z,16.90
2023-05-21T01:39:40.248Z,17.23
2023-05-21T01:42:10.088Z,18.17
2023-05-21T01:44:37.132Z,19.08
2023-05-21T01:47:04.413Z,20.10
2023-05-21T01:49:31.302Z,16.10
2023-05-21T01:51:58.242Z,15.85
2023-05-21T01:54:25.121Z,15.55
2023-05-21T01:56:52.017Z,19.15
2023-05-21T01:59:20.318Z,20.23
2023-05-21T02:01:47.261Z,15.25
2023-05-21T02:04:14.203Z,16.65
2023-05-21T02:06:41.132Z,17.95
2023-05-21T02:09:08.045Z,16.55
2023-05-21T02:11:35.151Z,19.40
2023-05-21T02:14:02.337Z,18.50
2023-05-21T02:16:30.700Z,18.73
2023-05-21T02:18:57.780Z,17.00
2023-05-21T02:21:24.716Z,19.10
2023-05-21T02:23:51.639Z,16.90
2023-05-21T02:26:18.611Z,19.63
2023-05-21T02:28:45.541Z,18.50
2023-05-21T02:31:12.414Z,17.38
2023-05-21T02:33:42.120Z,19.08
2023-05-21T02:36:09.055Z,18.05
2023-05-21T02:38:36.009Z,18.33
2023-05-21T02:41:03.195Z,19.05
2023-05-21T02:43:30.101Z,18.55
2023-05-21T02:45:57.007Z,20.17
2023-05-21T02:48:23.968Z,21.70
2023-05-21T02:50:52.447Z,20.95
2023-05-21T02:53:19.365Z,16.27
2023-05-21T02:55:46.250Z,19.33
2023-05-21T02:58:13.831Z,17.10
2023-05-21T03:00:40.746Z,16.27
2023-05-21T03:03:07.820Z,16.85
2023-05-21T03:05:34.907Z,16.05
2023-05-21T03:08:03.309Z,15.40
2023-05-21T03:10:30.213Z,14.73
2023-05-21T03:12:57.160Z,16.52
2023-05-21T03:15:24.340Z,15.50
2023-05-21T03:17:51.494Z,15.20
2023-05-21T03:20:18.456Z,17.98
2023-05-21T03:22:45.464Z,13.93
2023-05-21T03:25:13.795Z,14.15
2023-05-21T03:27:40.717Z,14.43
2023-05-21T03:30:08.605Z,16.45
2023-05-21T03:32:35.551Z,15.40
2023-05-21T03:35:02.535Z,17.27
2023-05-21T03:37:29.439Z,13.20
2023-05-21T03:39:56.339Z,12.57
2023-05-21T03:42:24.644Z,16.95
2023-05-21T03:44:51.535Z,12.23
2023-05-21T03:47:18.450Z,15.75
2023-05-21T03:49:45.430Z,12.30
2023-05-21T03:52:12.375Z,12.15
2023-05-21T03:54:39.297Z,14.25
2023-05-21T03:57:06.567Z,15.50
2023-05-21T03:59:34.831Z,13.73
2023-05-21T04:02:01.730Z,14.43
2023-05-21T04:04:28.673Z,14.95
2023-05-21T04:06:55.600Z,15.13
2023-05-21T04:09:22.565Z,16.13
2023-05-21T04:11:49.482Z,13.27
2023-05-21T04:14:16.532Z,15.65
2023-05-21T04:16:44.853Z,15.18
2023-05-21T04:19:11.799Z,15.38
2023-05-21T04:21:38.794Z,15.60
2023-05-21T04:24:05.962Z,14.57
2023-05-21T04:26:32.872Z,15.73
2023-05-21T04:28:59.931Z,16.13
2023-05-21T04:31:26.883Z,15.38
2023-05-21T04:33:55.292Z,16.05
2023-05-21T04:36:22.243Z,13.35
2023-05-21T04:38:49.192Z,15.57
2023-05-21T04:41:16.106Z,12.88
2023-05-21T04:43:43.028Z,13.75
2023-05-21T04:46:09.999Z,12.68
2023-05-21T04:48:36.904Z,13.95
2023-05-21T04:51:05.304Z,14.25
2023-05-21T04:53:32.191Z,13.48
2023-05-21T04:55:59.165Z,14.25
2023-05-21T04:58:26.054Z,13.68
2023-05-21T05:00:53.028Z,11.73
2023-05-21T05:03:20.005Z,12.20
2023-05-21T05:05:47.057Z,12.75
2023-05-21T05:08:16.162Z,11.13
2023-05-21T05:10:43.275Z,13.90
2023-05-21T05:13:10.287Z,11.27
2023-05-21T05:15:37.557Z,15.05
2023-05-21T05:18:04.758Z,11.68
2023-05-21T05:20:31.815Z,11.05
2023-05-21T05:22:58.722Z,9.80
2023-05-21T05:25:27.075Z,12.70
2023-05-21T05:27:53.981Z,9.35
2023-05-21T05:30:20.906Z,9.88
2023-05-21T05:32:47.825Z,10.57
2023-05-21T05:35:14.875Z,10.75
2023-05-21T05:37:41.804Z,9.68
2023-05-21T05:40:09.214Z,9.80
2023-05-21T05:42:37.508Z,8.88
2023-05-21T05:45:05.008Z,10.68
2023-05-21T05:47:31.923Z,9.23
2023-05-21T05:49:58.802Z,7.80
2023-05-21T05:52:25.674Z,8.90
2023-05-21T05:54:52.567Z,8.73
2023-05-21T05:57:19.521Z,10.85
2023-05-21T05:59:47.831Z,11.82
2023-05-21T06:02:14.765Z,11.60
2023-05-21T06:04:41.729Z,8.63
2023-05-21T06:07:08.636Z,8.05
2023-05-21T06:09:35.551Z,8.75
2023-05-21T06:12:02.499Z,11.30
2023-05-21T06:14:29.414Z,11.30
2023-05-21T06:16:57.762Z,10.23
2023-05-21T06:19:24.764Z,9.18
2023-05-21T06:21:51.732Z,9.48
2023-05-21T06:24:18.619Z,9.40
2023-05-21T06:26:45.498Z,10.73
2023-05-21T06:29:14.254Z,9.40
2023-05-21T06:31:42.392Z,9.15
2023-05-21T06:34:10.697Z,8.35
2023-05-21T06:36:37.882Z,10.93
2023-05-21T06:39:04.827Z,10.32
2023-05-21T06:41:31.737Z,10.55
2023-05-21T06:43:58.618Z,10.10
2023-05-21T06:46:25.622Z,10.18
2023-05-21T06:48:52.627Z,10.82
2023-05-21T06:51:20.899Z,9.38
2023-05-21T06:53:47.796Z,11.80
2023-05-21T06:56:14.686Z,9.43
2023-05-21T06:58:41.649Z,10.73
2023-05-21T07:01:08.657Z,8.52
2023-05-21T07:03:36.491Z,7.90
2023-05-21T07:06:03.688Z,10.98
2023-05-21T07:08:32.020Z,10.27
2023-05-21T07:10:58.909Z,8.80
2023-05-21T07:13:25.946Z,9.20
2023-05-21T07:15:52.872Z,11.52
2023-05-21T07:18:19.758Z,10.98
2023-05-21T07:20:46.663Z,11.45
2023-05-21T07:23:13.546Z,10.18
2023-05-21T07:25:41.845Z,12.68
2023-05-21T07:28:08.744Z,10.20
2023-05-21T07:30:35.671Z,11.25
2023-05-21T07:33:02.649Z,10.85
2023-05-21T07:35:29.604Z,9.48
2023-05-21T07:37:56.546Z,11.60
2023-05-21T07:40:23.572Z,11.32
2023-05-21T07:42:51.920Z,11.10
2023-05-21T07:45:18.800Z,9.65
2023-05-21T07:47:45.729Z,9.85
2023-05-21T07:50:13.834Z,12.32
2023-05-21T07:52:40.743Z,10.40
2023-05-21T07:55:08.925Z,9.18
2023-05-21T07:57:35.851Z,9.32
2023-05-21T08:00:05.202Z,10.82
2023-05-21T08:02:32.184Z,9.38
2023-05-21T08:04:59.286Z,9.88
2023-05-21T08:07:26.274Z,9.23
2023-05-21T08:09:53.239Z,11.57
2023-05-21T08:12:20.126Z,10.32
2023-05-21T08:14:47.031Z,10.38
2023-05-21T08:17:15.737Z,9.30
2023-05-21T08:19:42.639Z,9.23
2023-05-21T08:22:09.534Z,8.35
2023-05-21T08:24:36.439Z,10.25
2023-05-21T08:27:03.524Z,11.20
2023-05-21T08:29:30.432Z,12.80
2023-05-21T08:31:57.500Z,9.57
2023-05-21T08:34:25.798Z,8.45
2023-05-21T08:36:52.709Z,11.18
2023-05-21T08:39:19.635Z,10.07
2023-05-21T08:41:46.575Z,8.95
2023-05-21T08:44:13.487Z,11.85
2023-05-21T08:46:40.811Z,8.85
2023-05-21T08:49:10.652Z,9.65
2023-05-21T08:51:39.031Z,8.88
2023-05-21T08:54:06.048Z,8.43
2023-05-21T08:56:32.959Z,8.73
2023-05-21T08:58:59.880Z,13.77
2023-05-21T09:01:26.916Z,8.02
2023-05-21T09:03:59.069Z,7.75
2023-05-21T09:06:32.110Z,7.05
2023-05-21T09:09:02.766Z,9.63
2023-05-21T09:11:29.756Z,8.85
2023-05-21T09:13:56.714Z,9.32
2023-05-21T09:47:48.011Z,7.57
2023-05-21T09:50:18.237Z,6.95
2023-05-21T09:52:45.194Z,7.15
2023-05-21T09:55:13.093Z,6.55
2023-05-21T09:57:42.859Z,7.78
2023-05-21T10:00:16.892Z,8.07
2023-05-21T10:02:44.431Z,7.82
2023-05-21T10:05:13.663Z,7.07
2023-05-21T10:07:41.866Z,8.55
2023-05-21T10:10:10.493Z,9.27
2023-05-21T10:12:37.420Z,8.48
2023-05-21T10:15:06.357Z,12.55
2023-05-21T10:17:33.274Z,8.75
2023-05-21T10:20:00.303Z,8.48
2023-05-21T10:22:28.613Z,9.02
2023-05-21T10:24:55.553Z,9.20
2023-05-21T10:27:22.466Z,8.93
2023-05-21T10:29:49.368Z,7.43
2023-05-21T10:32:16.524Z,5.72
2023-05-21T10:34:43.826Z,7.20
2023-05-21T10:37:10.808Z,9.73
2023-05-21T10:39:39.134Z,9.00
2023-05-21T10:42:18.845Z,6.57
2023-05-21T10:44:54.618Z,9.93
2023-05-21T10:47:31.872Z,6.78
2023-05-21T10:50:13.746Z,6.28
2023-05-21T10:52:50.644Z,8.85
2023-05-21T10:55:36.457Z,8.95
2023-05-21T10:58:36.570Z,9.27
2023-05-21T11:01:03.538Z,10.38
2023-05-21T11:03:30.560Z,6.15
2023-05-21T11:05:57.794Z,8.25
2023-05-21T11:08:25.333Z,9.00
2023-05-21T11:10:54.033Z,7.30
2023-05-21T11:13:21.086Z,7.80
2023-05-21T11:57:26.121Z,7.68
2023-05-21T11:59:53.082Z,9.60
2023-05-21T12:02:21.085Z,6.35
2023-05-21T12:04:48.633Z,5.75
2023-05-21T12:07:16.057Z,11.50
2023-05-21T12:09:43.302Z,8.57
2023-05-21T12:12:10.577Z,8.10
2023-05-21T12:14:38.917Z,5.03
2023-05-21T12:17:06.628Z,6.00
2023-05-21T12:19:33.739Z,6.82
2023-05-21T12:22:01.962Z,5.53
2023-05-21T12:24:28.873Z,7.10
2023-05-21T12:26:55.786Z,7.00
2023-05-21T12:29:22.702Z,4.90
2023-05-21T12:31:51.008Z,6.68
2023-05-21T12:34:32.773Z,5.82
2023-05-21T12:36:59.707Z,7.82
2023-05-21T12:39:26.592Z,7.53
2023-05-21T12:41:54.186Z,10.50
2023-05-21T12:44:21.088Z,6.80
2023-05-21T12:46:48.020Z,6.85
2023-05-21T12:49:37.242Z,5.40
2023-05-21T12:52:05.528Z,6.72
2023-05-21T12:54:33.863Z,6.78
2023-05-21T12:57:07.054Z,8.25
2023-05-21T12:59:55.329Z,7.90
2023-05-21T13:02:23.385Z,11.07
2023-05-21T13:04:55.248Z,12.90
2023-05-21T13:07:22.252Z,12.38
2023-05-21T13:09:49.159Z,7.45
2023-05-21T13:12:16.094Z,11.05
2023-05-21T13:14:42.999Z,6.03
2023-05-21T13:17:09.877Z,7.30
2023-05-21T13:19:36.788Z,6.45
2023-05-21T13:22:05.380Z,9.45
2023-05-21T13:24:32.267Z,6.22
2023-05-21T13:26:59.151Z,8.23
2023-05-21T13:29:26.096Z,6.35
2023-05-21T13:31:53.041Z,6.43
2023-05-21T13:34:19.957Z,8.05
2023-05-21T13:36:46.858Z,10.30
2023-05-21T13:39:15.154Z,7.28
2023-05-21T13:41:42.038Z,8.68
2023-05-21T13:44:08.911Z,6.72
2023-05-21T13:46:35.891Z,7.20
2023-05-21T13:49:02.821Z,11.95
2023-05-21T13:51:38.499Z,6.40
2023-05-21T13:54:06.227Z,6.80
2023-05-21T13:56:34.534Z,7.35
2023-05-21T13:59:01.449Z,6.35
2023-05-21T14:01:28.501Z,10.00
2023-05-21T14:03:55.421Z,6.63
2023-05-21T14:06:22.344Z,7.97
2023-05-21T14:08:49.257Z,8.23
2023-05-21T14:11:16.138Z,7.60
2023-05-21T14:13:44.390Z,5.13
2023-05-21T14:16:11.392Z,9.38
2023-05-21T14:18:38.331Z,9.00
2023-05-21T14:21:05.283Z,8.75
2023-05-21T14:23:32.254Z,6.63
2023-05-21T14:25:59.170Z,7.95
2023-05-21T14:28:26.056Z,5.50
2023-05-21T14:30:54.369Z,8.27
2023-05-21T14:33:21.401Z,7.53
2023-05-21T14:35:48.381Z,5.20
2023-05-21T14:38:15.292Z,7.15
2023-05-21T14:40:42.216Z,5.90
2023-05-21T14:43:09.119Z,6.90
2023-05-21T14:45:36.076Z,6.68
2023-05-21T14:48:04.651Z,7.55
2023-05-21T14:50:31.620Z,7.10
2023-05-21T14:52:58.574Z,5.93
2023-05-21T14:55:25.495Z,5.35
2023-05-21T14:57:52.392Z,6.22
2023-05-21T15:00:19.404Z,6.88
2023-05-21T15:02:46.459Z,6.88
2023-05-21T15:05:14.863Z,5.72
2023-05-21T15:07:41.798Z,5.10
2023-05-21T15:10:09.340Z,5.97
2023-05-21T15:12:36.272Z,7.47
2023-05-21T15:15:03.468Z,5.68
2023-05-21T15:17:30.407Z,7.65
2023-05-21T15:19:57.345Z,8.80
2023-05-21T15:22:25.659Z,5.65
2023-05-21T15:24:52.632Z,6.97
2023-05-21T15:27:19.513Z,5.63
2023-05-21T15:29:46.463Z,6.15
2023-05-21T15:32:13.615Z,5.40
2023-05-21T15:34:40.711Z,6.93
2023-05-21T15:37:07.638Z,6.35
2023-05-21T15:39:35.930Z,5.40
2023-05-21T15:42:02.960Z,4.18
2023-05-21T15:44:29.852Z,5.95
2023-05-21T15:46:56.804Z,4.13
2023-05-21T15:49:23.773Z,7.65
2023-05-21T15:51:50.693Z,8.27
2023-05-21T15:54:17.668Z,4.43
2023-05-21T15:56:45.932Z,8.20
2023-05-21T15:59:13.448Z,6.15
2023-05-21T16:01:40.349Z,4.75
2023-05-21T16:04:07.369Z,5.22
2023-05-21T16:06:34.325Z,4.03
2023-05-21T16:09:01.194Z,6.22
2023-05-21T16:11:28.100Z,3.72
2023-05-21T16:13:56.404Z,4.95
2023-05-21T16:16:24.645Z,4.28
2023-05-21T16:18:51.918Z,3.55
2023-05-21T16:21:18.954Z,5.95
2023-05-21T16:23:45.869Z,4.85
2023-05-21T16:26:12.884Z,6.20
2023-05-21T16:28:39.801Z,7.40
2023-05-21T16:31:08.057Z,4.63
2023-05-21T16:33:34.969Z,3.63
2023-05-21T16:36:01.874Z,4.93
2023-05-21T16:38:28.781Z,4.60
2023-05-21T16:40:55.683Z,4.35
2023-05-21T16:43:22.634Z,3.80
2023-05-21T16:45:49.568Z,5.45
2023-05-21T16:48:17.878Z,4.25
2023-05-21T16:50:44.842Z,4.03
2023-05-21T16:53:11.727Z,3.50
2023-05-21T16:55:38.867Z,4.05
2023-05-21T16:58:06.401Z,3.92
2023-05-21T17:00:33.880Z,3.97
2023-05-21T17:03:00.885Z,5.30
2023-05-21T17:05:29.333Z,3.90
2023-05-21T17:07:56.251Z,4.45
2023-05-21T17:10:23.602Z,3.28
2023-05-21T17:12:50.493Z,3.65
2023-05-21T17:15:17.362Z,3.42
2023-05-21T17:17:44.272Z,4.00
2023-05-21T17:20:12.364Z,4.43
2023-05-21T17:22:40.736Z,4.15
2023-05-21T17:25:08.669Z,4.03
2023-05-21T17:27:35.559Z,4.13
2023-05-21T17:30:02.535Z,3.17
2023-05-21T17:32:29.447Z,5.15
2023-05-21T17:34:56.362Z,3.80
2023-05-21T17:37:23.241Z,2.75
2023-05-21T17:39:51.625Z,3.03
2023-05-21T17:42:19.841Z,3.72
2023-05-21T17:44:46.715Z,3.78
2023-05-21T17:47:13.692Z,2.85
2023-05-21T17:49:40.666Z,3.22
2023-05-21T17:52:07.705Z,3.63
2023-05-21T17:54:34.665Z,4.38
2023-05-21T17:57:03.237Z,3.88
2023-05-21T17:59:30.155Z,2.92
2023-05-21T18:01:57.041Z,5.15
2023-05-21T18:04:24.033Z,3.88
2023-05-21T18:06:51.080Z,3.00
2023-05-21T18:09:18.060Z,3.08
2023-05-21T18:11:45.036Z,2.88
2023-05-21T18:14:13.333Z,2.65
2023-05-21T18:16:40.425Z,3.60
2023-05-21T18:19:07.472Z,2.75
2023-05-21T18:21:34.500Z,2.63
2023-05-21T18:24:01.670Z,3.10
2023-05-21T18:26:28.558Z,3.25
2023-05-21T18:28:55.657Z,4.20
2023-05-21T18:31:23.954Z,3.60
2023-05-21T18:33:50.853Z,4.07
2023-05-21T18:36:17.865Z,3.72
2023-05-21T18:38:44.761Z,2.90
2023-05-21T18:41:11.668Z,3.90
2023-05-21T18:43:38.591Z,2.65
2023-05-21T18:46:05.504Z,3.13
2023-05-21T18:48:33.842Z,3.33
2023-05-21T18:51:00.759Z,3.92
2023-05-21T18:53:27.650Z,4.53
2023-05-21T18:55:54.558Z,3.70
2023-05-21T18:58:21.467Z,4.43
2023-05-21T19:00:48.373Z,5.85
2023-05-21T19:03:15.293Z,3.17
2023-05-21T19:05:43.709Z,3.80
2023-05-21T19:08:10.682Z,2.78
2023-05-21T19:10:37.861Z,3.00
2023-05-21T19:13:06.316Z,2.92
2023-05-21T19:15:33.495Z,3.80
2023-05-21T19:18:00.611Z,2.40
2023-05-21T19:20:27.645Z,2.28
2023-05-21T19:22:55.941Z,4.57
2023-05-21T19:25:22.853Z,2.88
2023-05-21T19:27:49.759Z,2.63
2023-05-21T19:30:16.941Z,3.72
2023-05-21T19:32:43.897Z,3.60
2023-05-21T19:35:10.859Z,3.85
2023-05-21T19:37:37.768Z,4.13
2023-05-21T19:40:07.721Z,3.35
2023-05-21T19:42:34.626Z,4.35
2023-05-21T19:45:01.513Z,2.50
2023-05-21T19:47:28.456Z,3.33
2023-05-21T19:49:55.426Z,2.95
2023-05-21T19:52:22.328Z,4.70
2023-05-21T19:54:49.256Z,3.05
2023-05-21T19:57:17.534Z,2.50
2023-05-21T19:59:44.472Z,3.95
2023-05-21T20:02:11.425Z,2.08
2023-05-21T20:04:38.307Z,3.00
2023-05-21T20:07:05.796Z,4.15
2023-05-21T20:09:32.798Z,2.50
2023-05-21T20:11:59.698Z,3.15
2023-05-21T20:14:27.951Z,2.13
2023-05-21T20:16:54.943Z,4.82
2023-05-21T20:19:22.153Z,2.40
2023-05-21T20:21:49.123Z,4.47
2023-05-21T20:24:16.007Z,4.82
2023-05-21T20:26:42.975Z,2.80
2023-05-21T20:29:09.895Z,2.30
2023-05-21T20:31:38.188Z,2.33
2023-05-21T20:34:05.107Z,3.95
2023-05-21T20:36:32.039Z,3.95
2023-05-21T20:38:58.939Z,4.00
2023-05-21T20:41:25.833Z,2.97
2023-05-21T20:43:52.756Z,2.40
2023-05-21T20:46:19.706Z,3.00
2023-05-21T20:48:48.033Z,4.50
2023-05-21T20:51:14.950Z,2.38
2023-05-21T20:53:41.842Z,3.65
2023-05-21T20:56:08.857Z,2.38
2023-05-21T20:58:35.795Z,2.53
2023-05-21T21:01:02.673Z,4.80
2023-05-21T21:03:29.749Z,3.92
2023-05-21T21:05:58.272Z,2.83
2023-05-21T21:08:25.175Z,4.32
2023-05-21T21:10:52.104Z,2.97
2023-05-21T21:13:19.027Z,2.33
2023-05-21T21:15:46.064Z,3.47
2023-05-21T21:18:13.070Z,2.92
2023-05-21T21:20:40.221Z,2.25
2023-05-21T21:23:08.650Z,3.63
2023-05-21T21:25:35.575Z,6.45
2023-05-21T21:28:02.512Z,2.83
2023-05-21T21:30:29.389Z,4.07
2023-05-21T21:32:56.321Z,3.08
2023-05-21T21:35:23.263Z,2.78
2023-05-21T21:37:50.320Z,2.97
2023-05-21T21:40:18.612Z,2.50
2023-05-21T21:42:45.537Z,2.97
2023-05-21T21:45:12.469Z,3.95
2023-05-21T21:47:39.450Z,3.35
2023-05-21T21:50:07.643Z,2.50
2023-05-21T21:52:34.555Z,2.22
2023-05-21T21:55:01.482Z,4.50
2023-05-21T21:57:29.813Z,3.10
2023-05-21T21:59:56.706Z,5.30
2023-05-21T22:02:23.635Z,3.38
2023-05-21T22:04:50.648Z,3.97
2023-05-21T22:07:17.603Z,3.10
2023-05-21T22:09:44.615Z,3.33
2023-05-21T22:12:11.581Z,3.83
2023-05-21T22:14:39.893Z,3.28
2023-05-21T22:17:06.893Z,3.50
2023-05-21T22:19:33.962Z,4.40
2023-05-21T22:22:00.887Z,3.72
2023-05-21T22:24:32.739Z,2.60
2023-05-21T22:27:00.214Z,2.95
2023-05-21T22:29:27.104Z,2.50
2023-05-21T22:31:55.410Z,4.57
2023-05-21T22:34:22.317Z,2.80
2023-05-21T22:36:49.256Z,2.83
2023-05-21T22:39:16.623Z,3.17
2023-05-21T22:41:43.602Z,2.38
2023-05-21T22:44:10.498Z,4.57
2023-05-21T22:46:37.422Z,3.80
2023-05-21T22:49:05.718Z,2.70
2023-05-21T22:51:32.718Z,2.53
2023-05-21T22:53:59.688Z,2.70
2023-05-21T22:56:26.823Z,3.78
2023-05-21T22:58:53.792Z,3.15
2023-05-21T23:01:20.728Z,3.83
2023-05-21T23:03:47.622Z,2.70
2023-05-21T23:06:15.874Z,3.92
2023-05-21T23:08:42.759Z,3.38
2023-05-21T23:11:09.735Z,2.72
2023-05-21T23:13:36.667Z,2.47
2023-05-21T23:16:03.860Z,3.42
2023-05-21T23:18:30.783Z,2.75
2023-05-21T23:20:57.733Z,3.22
2023-05-21T23:23:26.082Z,3.63
2023-05-21T23:25:52.956Z,2.83
2023-05-21T23:28:19.849Z,3.42
2023-05-21T23:30:46.796Z,3.20
2023-05-21T23:33:13.890Z,2.75
2023-05-21T23:35:40.938Z,3.92
2023-05-21T23:38:07.866Z,2.42
2023-05-21T23:40:36.238Z,3.40
2023-05-21T23:43:03.155Z,3.95
2023-05-21T23:45:30.407Z,2.95
2023-05-21T23:47:57.451Z,2.80
2023-05-21T23:50:24.532Z,3.33
2023-05-21T23:52:51.461Z,3.97
2023-05-21T23:55:18.383Z,6.10
2023-05-21T23:57:46.686Z,2.78
